sensor_id;sensor_type;location;lat;lon;timestamp;temperature;humidity
15286;DHT22;7744;52.172;10.668;2022-09-12T00:02:24;12.00;99.90
15286;DHT22;7744;52.172;10.668;2022-09-12T00:04:50;12.10;99.90
15286;DHT22;7744;52.172;10.668;2022-09-12T00:07:15;11.80;99.90
15286;DHT22;7744;52.172;10.668;2022-09-12T00:09:41;11.70;99.90
15286;DHT22;7744;52.172;10.668;2022-09-12T00:12:07;12.30;99.90
15286;DHT22;7744;52.172;10.668;2022-09-12T00:14:33;11.90;99.90
15286;DHT22;7744;52.172;10.668;2022-09-12T00:17:00;12.50;99.90
15286;DHT22;7744;52.172;10.668;2022-09-12T00:19:26;12.10;99.90
15286;DHT22;7744;52.172;10.668;2022-09-12T00:21:52;11.90;99.90
15286;DHT22;7744;52.172;10.668;2022-09-12T00:24:18;11.40;99.90
15286;DHT22;7744;52.172;10.668;2022-09-12T00:26:43;11.80;99.90
15286;DHT22;7744;52.172;10.668;2022-09-12T00:29:14;12.30;99.90
15286;DHT22;7744;52.172;10.668;2022-09-12T00:31:41;11.50;99.90
15286;DHT22;7744;52.172;10.668;2022-09-12T00:34:07;11.10;99.90
15286;DHT22;7744;52.172;10.668;2022-09-12T00:36:33;11.60;99.90
15286;DHT22;7744;52.172;10.668;2022-09-12T00:38:59;11.20;99.90
15286;DHT22;7744;52.172;10.668;2022-09-12T00:41:27;11.60;99.90
15286;DHT22;7744;52.172;10.668;2022-09-12T00:43:56;11.60;99.90
15286;DHT22;7744;52.172;10.668;2022-09-12T00:46:42;11.40;99.90
15286;DHT22;7744;52.172;10.668;2022-09-12T00:49:19;11.20;99.90
15286;DHT22;7744;52.172;10.668;2022-09-12T00:51:53;11.20;99.90
15286;DHT22;7744;52.172;10.668;2022-09-12T00:54:23;11.10;99.90
15286;DHT22;7744;52.172;10.668;2022-09-12T00:56:53;11.20;99.90
15286;DHT22;7744;52.172;10.668;2022-09-12T00:59:24;10.70;99.90
15286;DHT22;7744;52.172;10.668;2022-09-12T01:01:51;11.20;99.90
15286;DHT22;7744;52.172;10.668;2022-09-12T01:04:19;11.00;99.90
15286;DHT22;7744;52.172;10.668;2022-09-12T01:06:47;10.90;99.90
15286;DHT22;7744;52.172;10.668;2022-09-12T01:09:17;10.90;99.90
15286;DHT22;7744;52.172;10.668;2022-09-12T01:11:44;11.00;99.90
15286;DHT22;7744;52.172;10.668;2022-09-12T01:14:12;10.80;99.90
15286;DHT22;7744;52.172;10.668;2022-09-12T01:16:38;11.10;99.90
15286;DHT22;7744;52.172;10.668;2022-09-12T01:22:24;10.80;99.90
15286;DHT22;7744;52.172;10.668;2022-09-12T01:30:51;11.10;99.90
15286;DHT22;7744;52.172;10.668;2022-09-12T01:39:04;10.70;99.90
15286;DHT22;7744;52.172;10.668;2022-09-12T01:41:52;10.70;99.90
15286;DHT22;7744;52.172;10.668;2022-09-12T01:47:11;10.70;99.90
15286;DHT22;7744;52.172;10.668;2022-09-12T01:49:55;10.60;99.90
15286;DHT22;7744;52.172;10.668;2022-09-12T01:52:30;10.50;99.90
15286;DHT22;7744;52.172;10.668;2022-09-12T01:55:28;10.40;99.90
15286;DHT22;7744;52.172;10.668;2022-09-12T01:58:03;10.40;99.90
15286;DHT22;7744;52.172;10.668;2022-09-12T02:00:32;10.30;99.90
15286;DHT22;7744;52.172;10.668;2022-09-12T02:03:22;10.30;99.90
15286;DHT22;7744;52.172;10.668;2022-09-12T02:05:53;10.30;99.90
15286;DHT22;7744;52.172;10.668;2022-09-12T02:08:24;10.40;99.90
15286;DHT22;7744;52.172;10.668;2022-09-12T02:10:55;10.50;99.90
15286;DHT22;7744;52.172;10.668;2022-09-12T02:13:53;10.60;99.90
15286;DHT22;7744;52.172;10.668;2022-09-12T02:16:41;10.60;99.90
15286;DHT22;7744;52.172;10.668;2022-09-12T02:19:17;10.60;99.90
15286;DHT22;7744;52.172;10.668;2022-09-12T02:21:49;10.60;99.90
15286;DHT22;7744;52.172;10.668;2022-09-12T02:24:16;10.50;99.90
15286;DHT22;7744;52.172;10.668;2022-09-12T02:26:48;10.50;99.90
15286;DHT22;7744;52.172;10.668;2022-09-12T02:29:16;10.40;99.90
15286;DHT22;7744;52.172;10.668;2022-09-12T02:31:50;10.40;99.90
15286;DHT22;7744;52.172;10.668;2022-09-12T02:39:53;10.40;99.90
15286;DHT22;7744;52.172;10.668;2022-09-12T02:42:20;10.30;99.90
15286;DHT22;7744;52.172;10.668;2022-09-12T02:44:46;10.30;99.90
15286;DHT22;7744;52.172;10.668;2022-09-12T02:47:22;10.30;99.90
15286;DHT22;7744;52.172;10.668;2022-09-12T02:49:49;10.20;99.90
15286;DHT22;7744;52.172;10.668;2022-09-12T02:52:14;10.00;99.90
15286;DHT22;7744;52.172;10.668;2022-09-12T02:54:41;10.00;99.90
15286;DHT22;7744;52.172;10.668;2022-09-12T02:57:15;10.00;99.90
15286;DHT22;7744;52.172;10.668;2022-09-12T02:59:41;9.90;99.90
15286;DHT22;7744;52.172;10.668;2022-09-12T03:02:28;9.80;99.90
15286;DHT22;7744;52.172;10.668;2022-09-12T03:05:01;9.70;99.90
15286;DHT22;7744;52.172;10.668;2022-09-12T03:08:02;9.70;99.90
15286;DHT22;7744;52.172;10.668;2022-09-12T03:10:36;9.70;99.90
15286;DHT22;7744;52.172;10.668;2022-09-12T03:23:56;9.70;99.90
15286;DHT22;7744;52.172;10.668;2022-09-12T03:26:36;9.60;99.90
15286;DHT22;7744;52.172;10.668;2022-09-12T03:29:05;9.60;99.90
15286;DHT22;7744;52.172;10.668;2022-09-12T03:31:31;9.70;99.90
15286;DHT22;7744;52.172;10.668;2022-09-12T03:33:59;9.60;99.90
15286;DHT22;7744;52.172;10.668;2022-09-12T03:36:27;9.80;99.90
15286;DHT22;7744;52.172;10.668;2022-09-12T03:38:53;9.70;99.90
15286;DHT22;7744;52.172;10.668;2022-09-12T03:41:19;9.70;99.90
15286;DHT22;7744;52.172;10.668;2022-09-12T03:43:45;9.70;99.90
15286;DHT22;7744;52.172;10.668;2022-09-12T03:46:12;9.60;99.90
15286;DHT22;7744;52.172;10.668;2022-09-12T03:48:38;9.70;99.90
15286;DHT22;7744;52.172;10.668;2022-09-12T03:51:06;9.80;99.90
15286;DHT22;7744;52.172;10.668;2022-09-12T03:53:32;9.90;99.90
15286;DHT22;7744;52.172;10.668;2022-09-12T03:55:58;9.80;99.90
15286;DHT22;7744;52.172;10.668;2022-09-12T03:58:24;9.90;99.90
15286;DHT22;7744;52.172;10.668;2022-09-12T04:00:54;9.80;99.90
15286;DHT22;7744;52.172;10.668;2022-09-12T04:03:19;9.80;99.90
15286;DHT22;7744;52.172;10.668;2022-09-12T04:05:45;9.70;99.90
15286;DHT22;7744;52.172;10.668;2022-09-12T04:08:12;9.70;99.90
15286;DHT22;7744;52.172;10.668;2022-09-12T04:10:37;9.70;99.90
15286;DHT22;7744;52.172;10.668;2022-09-12T04:13:03;9.60;99.90
15286;DHT22;7744;52.172;10.668;2022-09-12T04:15:28;9.60;99.90
15286;DHT22;7744;52.172;10.668;2022-09-12T04:17:54;9.70;99.90
15286;DHT22;7744;52.172;10.668;2022-09-12T04:20:19;9.70;99.90
15286;DHT22;7744;52.172;10.668;2022-09-12T04:22:45;9.60;99.90
15286;DHT22;7744;52.172;10.668;2022-09-12T04:25:10;9.60;99.90
15286;DHT22;7744;52.172;10.668;2022-09-12T04:27:37;9.60;99.90
15286;DHT22;7744;52.172;10.668;2022-09-12T04:30:03;9.60;99.90
15286;DHT22;7744;52.172;10.668;2022-09-12T04:32:30;9.60;99.90
15286;DHT22;7744;52.172;10.668;2022-09-12T04:34:56;9.60;99.90
15286;DHT22;7744;52.172;10.668;2022-09-12T04:37:21;9.60;99.90
15286;DHT22;7744;52.172;10.668;2022-09-12T04:39:48;9.50;99.90
15286;DHT22;7744;52.172;10.668;2022-09-12T04:42:15;9.40;99.90
15286;DHT22;7744;52.172;10.668;2022-09-12T04:44:41;9.30;99.90
15286;DHT22;7744;52.172;10.668;2022-09-12T04:47:06;9.40;99.90
15286;DHT22;7744;52.172;10.668;2022-09-12T04:49:32;9.40;99.90
15286;DHT22;7744;52.172;10.668;2022-09-12T04:51:58;9.40;99.90
15286;DHT22;7744;52.172;10.668;2022-09-12T04:54:24;9.40;99.90
15286;DHT22;7744;52.172;10.668;2022-09-12T04:56:50;9.30;99.90
15286;DHT22;7744;52.172;10.668;2022-09-12T04:59:18;9.30;99.90
15286;DHT22;7744;52.172;10.668;2022-09-12T05:01:44;9.30;99.90
15286;DHT22;7744;52.172;10.668;2022-09-12T05:04:11;9.30;99.90
15286;DHT22;7744;52.172;10.668;2022-09-12T05:06:40;9.30;99.90
15286;DHT22;7744;52.172;10.668;2022-09-12T05:09:07;9.00;99.90
15286;DHT22;7744;52.172;10.668;2022-09-12T05:11:38;9.40;99.90
15286;DHT22;7744;52.172;10.668;2022-09-12T05:14:04;9.40;99.90
15286;DHT22;7744;52.172;10.668;2022-09-12T05:16:30;9.30;99.90
15286;DHT22;7744;52.172;10.668;2022-09-12T05:18:57;9.50;99.90
15286;DHT22;7744;52.172;10.668;2022-09-12T05:21:24;9.70;99.90
15286;DHT22;7744;52.172;10.668;2022-09-12T05:23:51;9.50;99.90
15286;DHT22;7744;52.172;10.668;2022-09-12T05:26:17;9.70;99.90
15286;DHT22;7744;52.172;10.668;2022-09-12T05:28:45;9.10;99.90
15286;DHT22;7744;52.172;10.668;2022-09-12T05:31:15;9.70;99.90
15286;DHT22;7744;52.172;10.668;2022-09-12T05:33:44;10.00;99.90
15286;DHT22;7744;52.172;10.668;2022-09-12T05:38:45;9.70;99.90
15286;DHT22;7744;52.172;10.668;2022-09-12T05:41:20;10.10;99.90
15286;DHT22;7744;52.172;10.668;2022-09-12T05:43:46;10.10;99.90
15286;DHT22;7744;52.172;10.668;2022-09-12T05:46:14;10.00;99.90
15286;DHT22;7744;52.172;10.668;2022-09-12T05:48:41;9.90;99.90
15286;DHT22;7744;52.172;10.668;2022-09-12T05:51:12;10.00;99.90
15286;DHT22;7744;52.172;10.668;2022-09-12T05:53:39;10.20;99.90
15286;DHT22;7744;52.172;10.668;2022-09-12T05:56:10;10.10;99.90
15286;DHT22;7744;52.172;10.668;2022-09-12T05:58:38;10.60;99.90
15286;DHT22;7744;52.172;10.668;2022-09-12T06:01:06;10.40;99.90
15286;DHT22;7744;52.172;10.668;2022-09-12T06:03:34;10.20;99.90
15286;DHT22;7744;52.172;10.668;2022-09-12T06:06:04;9.90;99.90
15286;DHT22;7744;52.172;10.668;2022-09-12T06:08:32;10.20;99.90
15286;DHT22;7744;52.172;10.668;2022-09-12T06:11:02;10.30;99.90
15286;DHT22;7744;52.172;10.668;2022-09-12T06:13:31;10.30;99.90
15286;DHT22;7744;52.172;10.668;2022-09-12T06:16:02;10.40;99.90
15286;DHT22;7744;52.172;10.668;2022-09-12T06:18:28;10.50;99.90
15286;DHT22;7744;52.172;10.668;2022-09-12T06:20:53;10.90;99.90
15286;DHT22;7744;52.172;10.668;2022-09-12T06:23:19;10.80;99.90
15286;DHT22;7744;52.172;10.668;2022-09-12T06:25:46;10.90;99.90
15286;DHT22;7744;52.172;10.668;2022-09-12T06:28:12;11.00;99.90
15286;DHT22;7744;52.172;10.668;2022-09-12T06:30:38;11.40;99.90
15286;DHT22;7744;52.172;10.668;2022-09-12T06:33:06;11.10;99.90
15286;DHT22;7744;52.172;10.668;2022-09-12T06:35:35;11.50;99.90
15286;DHT22;7744;52.172;10.668;2022-09-12T06:38:01;11.40;99.90
15286;DHT22;7744;52.172;10.668;2022-09-12T06:40:27;11.60;99.90
15286;DHT22;7744;52.172;10.668;2022-09-12T06:42:54;11.80;99.90
15286;DHT22;7744;52.172;10.668;2022-09-12T06:45:27;11.80;99.90
15286;DHT22;7744;52.172;10.668;2022-09-12T06:47:56;12.30;99.90
15286;DHT22;7744;52.172;10.668;2022-09-12T06:50:22;12.10;99.90
15286;DHT22;7744;52.172;10.668;2022-09-12T06:52:49;12.50;99.90
15286;DHT22;7744;52.172;10.668;2022-09-12T06:55:16;13.10;99.90
15286;DHT22;7744;52.172;10.668;2022-09-12T06:57:42;13.70;99.90
15286;DHT22;7744;52.172;10.668;2022-09-12T07:00:09;14.00;99.90
15286;DHT22;7744;52.172;10.668;2022-09-12T07:02:40;14.30;99.90
15286;DHT22;7744;52.172;10.668;2022-09-12T07:05:06;14.50;99.90
15286;DHT22;7744;52.172;10.668;2022-09-12T07:07:33;14.60;99.90
15286;DHT22;7744;52.172;10.668;2022-09-12T07:10:00;14.80;99.90
15286;DHT22;7744;52.172;10.668;2022-09-12T07:12:27;14.90;99.90
15286;DHT22;7744;52.172;10.668;2022-09-12T07:14:53;15.00;99.90
15286;DHT22;7744;52.172;10.668;2022-09-12T07:17:19;15.10;99.90
15286;DHT22;7744;52.172;10.668;2022-09-12T07:19:44;15.10;99.90
15286;DHT22;7744;52.172;10.668;2022-09-12T07:22:10;15.10;99.90
15286;DHT22;7744;52.172;10.668;2022-09-12T07:24:35;15.30;99.90
15286;DHT22;7744;52.172;10.668;2022-09-12T07:27:01;15.30;99.90
15286;DHT22;7744;52.172;10.668;2022-09-12T07:29:27;15.40;99.90
15286;DHT22;7744;52.172;10.668;2022-09-12T07:31:53;15.50;99.90
15286;DHT22;7744;52.172;10.668;2022-09-12T07:34:19;15.70;99.90
15286;DHT22;7744;52.172;10.668;2022-09-12T07:36:45;15.80;99.90
15286;DHT22;7744;52.172;10.668;2022-09-12T07:39:11;16.00;99.90
15286;DHT22;7744;52.172;10.668;2022-09-12T07:41:36;16.10;99.90
15286;DHT22;7744;52.172;10.668;2022-09-12T07:44:02;16.20;99.90
15286;DHT22;7744;52.172;10.668;2022-09-12T07:46:30;16.30;99.90
15286;DHT22;7744;52.172;10.668;2022-09-12T07:48:57;16.40;99.90
15286;DHT22;7744;52.172;10.668;2022-09-12T07:51:24;16.60;99.90
15286;DHT22;7744;52.172;10.668;2022-09-12T07:53:50;16.50;99.90
15286;DHT22;7744;52.172;10.668;2022-09-12T07:56:17;16.50;99.90
15286;DHT22;7744;52.172;10.668;2022-09-12T07:58:44;16.80;99.90
15286;DHT22;7744;52.172;10.668;2022-09-12T08:01:18;16.90;99.90
15286;DHT22;7744;52.172;10.668;2022-09-12T08:03:46;16.80;99.90
15286;DHT22;7744;52.172;10.668;2022-09-12T08:06:17;16.80;99.90
15286;DHT22;7744;52.172;10.668;2022-09-12T08:08:46;17.00;99.90
15286;DHT22;7744;52.172;10.668;2022-09-12T08:11:14;17.00;99.90
15286;DHT22;7744;52.172;10.668;2022-09-12T08:13:42;17.30;99.90
15286;DHT22;7744;52.172;10.668;2022-09-12T08:16:14;17.00;99.90
15286;DHT22;7744;52.172;10.668;2022-09-12T08:18:40;16.90;99.90
15286;DHT22;7744;52.172;10.668;2022-09-12T08:21:12;17.10;99.90
15286;DHT22;7744;52.172;10.668;2022-09-12T08:23:38;17.00;99.90
15286;DHT22;7744;52.172;10.668;2022-09-12T08:26:05;17.20;99.90
15286;DHT22;7744;52.172;10.668;2022-09-12T08:28:33;17.40;99.90
15286;DHT22;7744;52.172;10.668;2022-09-12T08:31:05;17.40;99.90
15286;DHT22;7744;52.172;10.668;2022-09-12T08:33:31;17.50;99.90
15286;DHT22;7744;52.172;10.668;2022-09-12T08:36:13;17.50;99.90
15286;DHT22;7744;52.172;10.668;2022-09-12T08:38:41;17.60;99.90
15286;DHT22;7744;52.172;10.668;2022-09-12T08:49:33;17.90;99.90
15286;DHT22;7744;52.172;10.668;2022-09-12T08:52:04;18.00;99.90
15286;DHT22;7744;52.172;10.668;2022-09-12T08:54:32;18.10;99.90
15286;DHT22;7744;52.172;10.668;2022-09-12T08:57:02;18.20;96.00
15286;DHT22;7744;52.172;10.668;2022-09-12T08:59:40;18.20;78.10
15286;DHT22;7744;52.172;10.668;2022-09-12T09:05:22;18.30;60.30
15286;DHT22;7744;52.172;10.668;2022-09-12T09:10:27;18.40;53.90
15286;DHT22;7744;52.172;10.668;2022-09-12T09:18:36;18.50;44.90
15286;DHT22;7744;52.172;10.668;2022-09-12T09:21:19;18.70;26.40
15286;DHT22;7744;52.172;10.668;2022-09-12T09:23:51;18.70;18.20
15286;DHT22;7744;52.172;10.668;2022-09-12T09:26:27;18.70;20.10
15286;DHT22;7744;52.172;10.668;2022-09-12T09:28:58;18.80;1.00
15286;DHT22;7744;52.172;10.668;2022-09-12T09:31:29;18.90;1.00
15286;DHT22;7744;52.172;10.668;2022-09-12T09:33:57;18.80;1.00
15286;DHT22;7744;52.172;10.668;2022-09-12T09:39:33;19.10;1.00
15286;DHT22;7744;52.172;10.668;2022-09-12T09:42:13;19.20;1.00
15286;DHT22;7744;52.172;10.668;2022-09-12T09:44:40;19.40;1.00
15286;DHT22;7744;52.172;10.668;2022-09-12T09:47:09;19.40;1.00
15286;DHT22;7744;52.172;10.668;2022-09-12T09:49:35;19.20;1.00
15286;DHT22;7744;52.172;10.668;2022-09-12T09:52:01;19.60;1.00
15286;DHT22;7744;52.172;10.668;2022-09-12T09:54:38;19.70;1.00
15286;DHT22;7744;52.172;10.668;2022-09-12T10:05:29;20.30;99.90
15286;DHT22;7744;52.172;10.668;2022-09-12T10:07:57;20.40;1.00
15286;DHT22;7744;52.172;10.668;2022-09-12T10:10:31;20.40;99.90
15286;DHT22;7744;52.172;10.668;2022-09-12T10:13:23;20.40;1.00
15286;DHT22;7744;52.172;10.668;2022-09-12T10:16:00;20.60;1.00
15286;DHT22;7744;52.172;10.668;2022-09-12T10:18:38;20.50;1.00
15286;DHT22;7744;52.172;10.668;2022-09-12T10:21:14;20.40;99.90
15286;DHT22;7744;52.172;10.668;2022-09-12T10:23:41;20.70;1.00
15286;DHT22;7744;52.172;10.668;2022-09-12T10:26:13;20.80;1.00
15286;DHT22;7744;52.172;10.668;2022-09-12T10:28:46;20.90;1.00
15286;DHT22;7744;52.172;10.668;2022-09-12T10:31:15;20.80;1.00
15286;DHT22;7744;52.172;10.668;2022-09-12T10:34:03;20.40;84.50
15286;DHT22;7744;52.172;10.668;2022-09-12T10:36:42;20.40;99.90
15286;DHT22;7744;52.172;10.668;2022-09-12T10:39:17;20.60;91.70
15286;DHT22;7744;52.172;10.668;2022-09-12T10:41:43;20.80;1.00
15286;DHT22;7744;52.172;10.668;2022-09-12T10:44:18;20.90;1.00
15286;DHT22;7744;52.172;10.668;2022-09-12T10:46:54;20.80;1.00
15286;DHT22;7744;52.172;10.668;2022-09-12T10:49:32;21.00;99.90
15286;DHT22;7744;52.172;10.668;2022-09-12T10:52:22;21.30;99.90
15286;DHT22;7744;52.172;10.668;2022-09-12T10:55:04;21.60;99.90
15286;DHT22;7744;52.172;10.668;2022-09-12T10:58:06;21.70;99.90
15286;DHT22;7744;52.172;10.668;2022-09-12T11:00:36;21.90;1.00
15286;DHT22;7744;52.172;10.668;2022-09-12T11:06:23;22.20;1.00
15286;DHT22;7744;52.172;10.668;2022-09-12T11:09:08;22.20;99.90
15286;DHT22;7744;52.172;10.668;2022-09-12T11:14:49;21.80;1.00
15286;DHT22;7744;52.172;10.668;2022-09-12T11:33:59;22.30;99.90
15286;DHT22;7744;52.172;10.668;2022-09-12T11:39:19;22.30;1.00
15286;DHT22;7744;52.172;10.668;2022-09-12T11:41:57;22.10;1.00
15286;DHT22;7744;52.172;10.668;2022-09-12T11:44:42;22.10;97.90
15286;DHT22;7744;52.172;10.668;2022-09-12T11:47:12;22.20;99.90
15286;DHT22;7744;52.172;10.668;2022-09-12T11:49:47;22.40;1.00
15286;DHT22;7744;52.172;10.668;2022-09-12T11:52:25;22.60;99.90
15286;DHT22;7744;52.172;10.668;2022-09-12T11:57:42;22.60;1.00
15286;DHT22;7744;52.172;10.668;2022-09-12T12:05:43;22.70;1.00
15286;DHT22;7744;52.172;10.668;2022-09-12T12:08:14;22.80;1.00
15286;DHT22;7744;52.172;10.668;2022-09-12T12:10:57;22.60;1.00
15286;DHT22;7744;52.172;10.668;2022-09-12T12:13:37;22.70;1.00
15286;DHT22;7744;52.172;10.668;2022-09-12T12:16:06;22.70;1.00
15286;DHT22;7744;52.172;10.668;2022-09-12T12:18:36;22.70;99.90
15286;DHT22;7744;52.172;10.668;2022-09-12T12:34:38;22.80;99.90
15286;DHT22;7744;52.172;10.668;2022-09-12T12:48:13;23.10;7.20
15286;DHT22;7744;52.172;10.668;2022-09-12T12:50:40;23.10;1.00
15286;DHT22;7744;52.172;10.668;2022-09-12T12:53:17;23.10;1.00
15286;DHT22;7744;52.172;10.668;2022-09-12T12:55:49;23.10;1.00
15286;DHT22;7744;52.172;10.668;2022-09-12T12:58:34;23.30;1.00
15286;DHT22;7744;52.172;10.668;2022-09-12T13:01:12;23.30;1.00
15286;DHT22;7744;52.172;10.668;2022-09-12T13:06:38;23.10;1.00
15286;DHT22;7744;52.172;10.668;2022-09-12T13:09:08;23.20;1.00
15286;DHT22;7744;52.172;10.668;2022-09-12T13:11:40;23.50;1.00
15286;DHT22;7744;52.172;10.668;2022-09-12T13:17:07;23.60;1.00
15286;DHT22;7744;52.172;10.668;2022-09-12T13:19:38;23.70;1.00
15286;DHT22;7744;52.172;10.668;2022-09-12T13:22:09;23.80;1.00
15286;DHT22;7744;52.172;10.668;2022-09-12T13:24:48;23.70;1.00
15286;DHT22;7744;52.172;10.668;2022-09-12T13:27:25;23.60;1.00
15286;DHT22;7744;52.172;10.668;2022-09-12T13:30:08;23.60;1.00
15286;DHT22;7744;52.172;10.668;2022-09-12T13:32:38;23.70;1.00
15286;DHT22;7744;52.172;10.668;2022-09-12T13:35:17;23.80;1.00
15286;DHT22;7744;52.172;10.668;2022-09-12T13:38:56;23.90;1.00
15286;DHT22;7744;52.172;10.668;2022-09-12T13:43:48;24.20;1.00
15286;DHT22;7744;52.172;10.668;2022-09-12T13:46:17;24.20;99.90
15286;DHT22;7744;52.172;10.668;2022-09-12T13:48:46;24.00;99.90
15286;DHT22;7744;52.172;10.668;2022-09-12T13:51:32;23.90;1.00
15286;DHT22;7744;52.172;10.668;2022-09-12T13:54:02;23.90;99.90
15286;DHT22;7744;52.172;10.668;2022-09-12T13:57:01;23.70;99.90
15286;DHT22;7744;52.172;10.668;2022-09-12T13:59:26;23.70;1.00
15286;DHT22;7744;52.172;10.668;2022-09-12T14:01:52;23.70;1.00
15286;DHT22;7744;52.172;10.668;2022-09-12T14:04:23;23.80;99.90
15286;DHT22;7744;52.172;10.668;2022-09-12T14:07:17;23.50;99.90
15286;DHT22;7744;52.172;10.668;2022-09-12T14:09:53;23.40;1.00
15286;DHT22;7744;52.172;10.668;2022-09-12T14:12:30;23.30;1.00
15286;DHT22;7744;52.172;10.668;2022-09-12T14:14:57;23.40;1.00
15286;DHT22;7744;52.172;10.668;2022-09-12T14:17:33;23.40;1.00
15286;DHT22;7744;52.172;10.668;2022-09-12T14:20:11;23.20;1.00
15286;DHT22;7744;52.172;10.668;2022-09-12T14:22:39;23.10;1.00
15286;DHT22;7744;52.172;10.668;2022-09-12T14:25:06;23.00;1.00
15286;DHT22;7744;52.172;10.668;2022-09-12T14:27:42;22.80;1.00
15286;DHT22;7744;52.172;10.668;2022-09-12T14:30:33;22.80;1.00
15286;DHT22;7744;52.172;10.668;2022-09-12T14:38:43;22.80;1.00
15286;DHT22;7744;52.172;10.668;2022-09-12T14:41:30;23.00;1.00
15286;DHT22;7744;52.172;10.668;2022-09-12T14:43:59;23.20;1.00
15286;DHT22;7744;52.172;10.668;2022-09-12T14:46:37;23.10;1.00
15286;DHT22;7744;52.172;10.668;2022-09-12T14:51:59;23.10;1.00
15286;DHT22;7744;52.172;10.668;2022-09-12T14:57:01;23.10;1.00
15286;DHT22;7744;52.172;10.668;2022-09-12T15:05:13;23.10;1.00
15286;DHT22;7744;52.172;10.668;2022-09-12T15:07:52;23.00;1.00
15286;DHT22;7744;52.172;10.668;2022-09-12T15:10:35;22.90;1.00
15286;DHT22;7744;52.172;10.668;2022-09-12T15:15:31;22.80;1.00
15286;DHT22;7744;52.172;10.668;2022-09-12T15:17:57;22.80;1.00
15286;DHT22;7744;52.172;10.668;2022-09-12T15:20:23;22.80;1.00
15286;DHT22;7744;52.172;10.668;2022-09-12T15:22:50;22.90;1.00
15286;DHT22;7744;52.172;10.668;2022-09-12T15:25:16;23.00;1.00
15286;DHT22;7744;52.172;10.668;2022-09-12T15:27:43;22.90;1.00
15286;DHT22;7744;52.172;10.668;2022-09-12T15:30:16;22.90;1.00
15286;DHT22;7744;52.172;10.668;2022-09-12T15:32:42;23.00;1.00
15286;DHT22;7744;52.172;10.668;2022-09-12T15:35:16;22.90;1.00
15286;DHT22;7744;52.172;10.668;2022-09-12T15:37:45;22.80;1.00
15286;DHT22;7744;52.172;10.668;2022-09-12T15:40:20;22.60;1.00
15286;DHT22;7744;52.172;10.668;2022-09-12T15:42:46;22.40;1.00
15286;DHT22;7744;52.172;10.668;2022-09-12T15:45:22;22.10;1.00
15286;DHT22;7744;52.172;10.668;2022-09-12T15:47:54;22.20;1.00
15286;DHT22;7744;52.172;10.668;2022-09-12T15:50:26;21.80;1.00
